sensor_id;sensor_type;location;lat;lon;timestamp;P1;durP1;ratioP1;P2;durP2;ratioP2
28724;SDS011;43472;48.980;9.646;2023-02-28T00:00:37;6.82;;;3.38;;
28724;SDS011;43472;48.980;9.646;2023-02-28T00:05:40;2.83;;;1.98;;
28724;SDS011;43472;48.980;9.646;2023-02-28T00:10:42;4.30;;;2.00;;
28724;SDS011;43472;48.980;9.646;2023-02-28T00:15:44;3.67;;;2.15;;
28724;SDS011;43472;48.980;9.646;2023-02-28T00:20:47;5.35;;;2.50;;
28724;SDS011;43472;48.980;9.646;2023-02-28T00:25:49;4.85;;;2.70;;
28724;SDS011;43472;48.980;9.646;2023-02-28T00:30:51;3.70;;;2.20;;
28724;SDS011;43472;48.980;9.646;2023-02-28T00:36:00;4.38;;;2.70;;
28724;SDS011;43472;48.980;9.646;2023-02-28T00:41:12;4.43;;;2.38;;
28724;SDS011;43472;48.980;9.646;2023-02-28T00:46:14;4.43;;;2.28;;
28724;SDS011;43472;48.980;9.646;2023-02-28T00:51:16;5.65;;;2.80;;
28724;SDS011;43472;48.980;9.646;2023-02-28T00:56:18;4.10;;;2.38;;
28724;SDS011;43472;48.980;9.646;2023-02-28T01:01:20;4.00;;;2.28;;
28724;SDS011;43472;48.980;9.646;2023-02-28T01:06:22;4.25;;;2.63;;
28724;SDS011;43472;48.980;9.646;2023-02-28T01:11:24;7.05;;;3.08;;
28724;SDS011;43472;48.980;9.646;2023-02-28T01:16:26;5.18;;;2.97;;
28724;SDS011;43472;48.980;9.646;2023-02-28T01:21:28;4.90;;;2.58;;
28724;SDS011;43472;48.980;9.646;2023-02-28T01:26:31;6.78;;;2.78;;
28724;SDS011;43472;48.980;9.646;2023-02-28T01:31:33;6.05;;;2.90;;
28724;SDS011;43472;48.980;9.646;2023-02-28T01:36:35;5.38;;;2.90;;
28724;SDS011;43472;48.980;9.646;2023-02-28T01:41:37;5.55;;;2.50;;
28724;SDS011;43472;48.980;9.646;2023-02-28T01:46:41;6.07;;;3.45;;
28724;SDS011;43472;48.980;9.646;2023-02-28T01:51:45;4.50;;;2.65;;
28724;SDS011;43472;48.980;9.646;2023-02-28T01:56:56;9.68;;;4.20;;
28724;SDS011;43472;48.980;9.646;2023-02-28T02:02:05;5.78;;;3.30;;
28724;SDS011;43472;48.980;9.646;2023-02-28T02:07:07;4.82;;;3.15;;
28724;SDS011;43472;48.980;9.646;2023-02-28T02:12:58;4.55;;;2.85;;
28724;SDS011;43472;48.980;9.646;2023-02-28T02:17:42;3.47;;;2.63;;
28724;SDS011;43472;48.980;9.646;2023-02-28T02:33:29;5.85;;;2.88;;
28724;SDS011;43472;48.980;9.646;2023-02-28T02:38:58;4.40;;;2.58;;
28724;SDS011;43472;48.980;9.646;2023-02-28T02:44:27;7.03;;;3.05;;
28724;SDS011;43472;48.980;9.646;2023-02-28T02:49:37;6.07;;;3.00;;
28724;SDS011;43472;48.980;9.646;2023-02-28T02:54:43;6.40;;;3.28;;
28724;SDS011;43472;48.980;9.646;2023-02-28T02:59:48;5.00;;;3.03;;
28724;SDS011;43472;48.980;9.646;2023-02-28T03:04:53;6.30;;;2.95;;
28724;SDS011;43472;48.980;9.646;2023-02-28T03:10:02;5.20;;;2.92;;
28724;SDS011;43472;48.980;9.646;2023-02-28T03:15:08;5.40;;;3.00;;
28724;SDS011;43472;48.980;9.646;2023-02-28T03:20:37;5.65;;;3.22;;
28724;SDS011;43472;48.980;9.646;2023-02-28T03:25:59;4.20;;;3.05;;
28724;SDS011;43472;48.980;9.646;2023-02-28T03:31:15;4.73;;;3.00;;
28724;SDS011;43472;48.980;9.646;2023-02-28T03:36:24;6.55;;;3.72;;
28724;SDS011;43472;48.980;9.646;2023-02-28T03:41:31;5.82;;;3.20;;
28724;SDS011;43472;48.980;9.646;2023-02-28T03:46:38;8.02;;;4.13;;
28724;SDS011;43472;48.980;9.646;2023-02-28T03:51:47;5.25;;;3.40;;
28724;SDS011;43472;48.980;9.646;2023-02-28T03:56:53;8.20;;;3.63;;
28724;SDS011;43472;48.980;9.646;2023-02-28T04:02:02;7.57;;;3.77;;
28724;SDS011;43472;48.980;9.646;2023-02-28T04:07:06;7.72;;;3.92;;
28724;SDS011;43472;48.980;9.646;2023-02-28T04:12:09;7.07;;;3.95;;
28724;SDS011;43472;48.980;9.646;2023-02-28T04:17:11;7.35;;;3.75;;
28724;SDS011;43472;48.980;9.646;2023-02-28T04:22:12;8.30;;;3.70;;
28724;SDS011;43472;48.980;9.646;2023-02-28T04:27:15;9.95;;;4.30;;
28724;SDS011;43472;48.980;9.646;2023-02-28T04:32:17;6.50;;;3.83;;
28724;SDS011;43472;48.980;9.646;2023-02-28T04:37:19;6.55;;;3.95;;
28724;SDS011;43472;48.980;9.646;2023-02-28T04:42:21;6.18;;;3.72;;
28724;SDS011;43472;48.980;9.646;2023-02-28T04:47:23;5.15;;;3.72;;
28724;SDS011;43472;48.980;9.646;2023-02-28T04:52:25;8.43;;;4.18;;
28724;SDS011;43472;48.980;9.646;2023-02-28T04:57:28;6.30;;;4.20;;
28724;SDS011;43472;48.980;9.646;2023-02-28T05:02:34;13.77;;;4.75;;
28724;SDS011;43472;48.980;9.646;2023-02-28T05:07:36;7.50;;;4.07;;
28724;SDS011;43472;48.980;9.646;2023-02-28T05:12:39;9.27;;;4.38;;
28724;SDS011;43472;48.980;9.646;2023-02-28T05:17:41;6.93;;;4.35;;
28724;SDS011;43472;48.980;9.646;2023-02-28T05:22:43;7.35;;;4.63;;
28724;SDS011;43472;48.980;9.646;2023-02-28T05:27:45;8.75;;;4.75;;
28724;SDS011;43472;48.980;9.646;2023-02-28T05:32:49;9.52;;;4.93;;
28724;SDS011;43472;48.980;9.646;2023-02-28T05:37:52;7.47;;;5.13;;
28724;SDS011;43472;48.980;9.646;2023-02-28T05:42:55;7.70;;;4.65;;
28724;SDS011;43472;48.980;9.646;2023-02-28T05:47:56;8.02;;;4.30;;
28724;SDS011;43472;48.980;9.646;2023-02-28T05:52:58;5.70;;;3.63;;
28724;SDS011;43472;48.980;9.646;2023-02-28T05:58:00;9.02;;;4.35;;
28724;SDS011;43472;48.980;9.646;2023-02-28T06:03:03;8.00;;;4.63;;
28724;SDS011;43472;48.980;9.646;2023-02-28T06:08:05;8.25;;;4.25;;
28724;SDS011;43472;48.980;9.646;2023-02-28T06:13:08;8.45;;;5.25;;
28724;SDS011;43472;48.980;9.646;2023-02-28T06:18:10;9.40;;;4.78;;
28724;SDS011;43472;48.980;9.646;2023-02-28T06:23:12;8.30;;;4.38;;
28724;SDS011;43472;48.980;9.646;2023-02-28T06:28:13;7.45;;;4.75;;
28724;SDS011;43472;48.980;9.646;2023-02-28T06:33:17;7.97;;;4.32;;
28724;SDS011;43472;48.980;9.646;2023-02-28T06:38:19;8.50;;;5.45;;
28724;SDS011;43472;48.980;9.646;2023-02-28T06:43:22;11.40;;;5.50;;
28724;SDS011;43472;48.980;9.646;2023-02-28T06:48:25;9.20;;;5.13;;
28724;SDS011;43472;48.980;9.646;2023-02-28T06:53:28;10.25;;;6.13;;
28724;SDS011;43472;48.980;9.646;2023-02-28T06:58:30;10.52;;;5.15;;
28724;SDS011;43472;48.980;9.646;2023-02-28T07:03:32;8.00;;;4.97;;
28724;SDS011;43472;48.980;9.646;2023-02-28T07:08:36;8.80;;;5.30;;
28724;SDS011;43472;48.980;9.646;2023-02-28T07:13:38;9.50;;;5.70;;
28724;SDS011;43472;48.980;9.646;2023-02-28T07:18:40;10.80;;;5.72;;
28724;SDS011;43472;48.980;9.646;2023-02-28T07:23:42;10.50;;;5.70;;
28724;SDS011;43472;48.980;9.646;2023-02-28T07:28:45;8.70;;;5.78;;
28724;SDS011;43472;48.980;9.646;2023-02-28T07:33:49;8.88;;;5.57;;
28724;SDS011;43472;48.980;9.646;2023-02-28T07:38:51;10.52;;;5.88;;
28724;SDS011;43472;48.980;9.646;2023-02-28T07:43:54;9.80;;;6.28;;
28724;SDS011;43472;48.980;9.646;2023-02-28T07:48:56;11.32;;;6.97;;
28724;SDS011;43472;48.980;9.646;2023-02-28T07:54:00;12.02;;;5.95;;
28724;SDS011;43472;48.980;9.646;2023-02-28T07:59:02;9.45;;;5.90;;
28724;SDS011;43472;48.980;9.646;2023-02-28T08:04:04;9.95;;;6.60;;
28724;SDS011;43472;48.980;9.646;2023-02-28T08:09:06;11.68;;;5.93;;
28724;SDS011;43472;48.980;9.646;2023-02-28T08:14:08;12.85;;;6.28;;
28724;SDS011;43472;48.980;9.646;2023-02-28T08:19:10;10.98;;;6.35;;
28724;SDS011;43472;48.980;9.646;2023-02-28T08:24:12;10.73;;;6.30;;
28724;SDS011;43472;48.980;9.646;2023-02-28T08:29:14;13.10;;;7.03;;
28724;SDS011;43472;48.980;9.646;2023-02-28T08:34:16;9.63;;;6.28;;
28724;SDS011;43472;48.980;9.646;2023-02-28T08:39:18;13.25;;;6.75;;
28724;SDS011;43472;48.980;9.646;2023-02-28T08:44:21;10.73;;;6.72;;
28724;SDS011;43472;48.980;9.646;2023-02-28T08:49:23;10.25;;;6.85;;
28724;SDS011;43472;48.980;9.646;2023-02-28T08:54:25;12.32;;;7.03;;
28724;SDS011;43472;48.980;9.646;2023-02-28T08:59:28;11.43;;;7.05;;
28724;SDS011;43472;48.980;9.646;2023-02-28T09:04:30;12.55;;;7.32;;
28724;SDS011;43472;48.980;9.646;2023-02-28T09:09:32;11.05;;;6.95;;
28724;SDS011;43472;48.980;9.646;2023-02-28T09:14:34;11.32;;;6.93;;
28724;SDS011;43472;48.980;9.646;2023-02-28T09:19:36;13.85;;;7.22;;
28724;SDS011;43472;48.980;9.646;2023-02-28T09:24:38;10.60;;;6.82;;
28724;SDS011;43472;48.980;9.646;2023-02-28T09:29:45;13.75;;;7.40;;
28724;SDS011;43472;48.980;9.646;2023-02-28T09:34:47;11.35;;;7.10;;
28724;SDS011;43472;48.980;9.646;2023-02-28T09:39:49;14.95;;;8.00;;
28724;SDS011;43472;48.980;9.646;2023-02-28T09:44:51;9.27;;;6.38;;
28724;SDS011;43472;48.980;9.646;2023-02-28T09:49:53;11.38;;;6.30;;
28724;SDS011;43472;48.980;9.646;2023-02-28T09:54:58;12.10;;;6.65;;
28724;SDS011;43472;48.980;9.646;2023-02-28T10:05:23;14.90;;;7.13;;
28724;SDS011;43472;48.980;9.646;2023-02-28T10:16:10;9.32;;;6.40;;
28724;SDS011;43472;48.980;9.646;2023-02-28T10:21:30;11.13;;;6.90;;
28724;SDS011;43472;48.980;9.646;2023-02-28T10:26:39;10.63;;;6.75;;
28724;SDS011;43472;48.980;9.646;2023-02-28T10:31:45;12.00;;;6.93;;
28724;SDS011;43472;48.980;9.646;2023-02-28T10:36:47;8.98;;;6.40;;
28724;SDS011;43472;48.980;9.646;2023-02-28T10:41:51;12.07;;;6.95;;
28724;SDS011;43472;48.980;9.646;2023-02-28T10:46:54;9.55;;;6.72;;
28724;SDS011;43472;48.980;9.646;2023-02-28T10:51:59;11.40;;;7.07;;
28724;SDS011;43472;48.980;9.646;2023-02-28T10:57:11;9.82;;;6.82;;
28724;SDS011;43472;48.980;9.646;2023-02-28T11:02:36;10.65;;;6.95;;
28724;SDS011;43472;48.980;9.646;2023-02-28T11:07:44;9.90;;;6.75;;
28724;SDS011;43472;48.980;9.646;2023-02-28T11:12:56;9.82;;;6.82;;
28724;SDS011;43472;48.980;9.646;2023-02-28T11:23:06;10.32;;;5.95;;
28724;SDS011;43472;48.980;9.646;2023-02-28T11:38:55;13.20;;;7.07;;
28724;SDS011;43472;48.980;9.646;2023-02-28T11:55:34;11.70;;;6.65;;
28724;SDS011;43472;48.980;9.646;2023-02-28T12:00:57;12.60;;;8.23;;
28724;SDS011;43472;48.980;9.646;2023-02-28T12:16:42;11.20;;;6.82;;
28724;SDS011;43472;48.980;9.646;2023-02-28T12:27:29;8.35;;;6.40;;
28724;SDS011;43472;48.980;9.646;2023-02-28T12:32:39;10.48;;;6.20;;
28724;SDS011;43472;48.980;9.646;2023-02-28T12:42:54;8.88;;;6.32;;
28724;SDS011;43472;48.980;9.646;2023-02-28T12:48:02;10.65;;;6.57;;
28724;SDS011;43472;48.980;9.646;2023-02-28T12:58:58;8.32;;;5.95;;
28724;SDS011;43472;48.980;9.646;2023-02-28T13:09:55;9.35;;;6.18;;
28724;SDS011;43472;48.980;9.646;2023-02-28T13:20:14;7.05;;;5.95;;
28724;SDS011;43472;48.980;9.646;2023-02-28T13:36:07;8.55;;;6.00;;
28724;SDS011;43472;48.980;9.646;2023-02-28T13:46:35;10.30;;;5.85;;
28724;SDS011;43472;48.980;9.646;2023-02-28T14:07:46;6.95;;;6.00;;
28724;SDS011;43472;48.980;9.646;2023-02-28T14:17:57;7.15;;;5.97;;
28724;SDS011;43472;48.980;9.646;2023-02-28T14:39:10;8.18;;;6.45;;
28724;SDS011;43472;48.980;9.646;2023-02-28T14:44:19;9.13;;;6.13;;
28724;SDS011;43472;48.980;9.646;2023-02-28T14:49:26;8.02;;;6.43;;
28724;SDS011;43472;48.980;9.646;2023-02-28T14:54:29;7.07;;;6.18;;
28724;SDS011;43472;48.980;9.646;2023-02-28T14:59:32;8.93;;;7.03;;
28724;SDS011;43472;48.980;9.646;2023-02-28T15:04:35;9.35;;;6.72;;
28724;SDS011;43472;48.980;9.646;2023-02-28T15:09:37;10.30;;;6.70;;
28724;SDS011;43472;48.980;9.646;2023-02-28T15:14:39;10.60;;;7.72;;
28724;SDS011;43472;48.980;9.646;2023-02-28T15:19:44;10.13;;;7.28;;
28724;SDS011;43472;48.980;9.646;2023-02-28T15:24:51;10.85;;;6.97;;
28724;SDS011;43472;48.980;9.646;2023-02-28T15:29:55;10.45;;;7.45;;
28724;SDS011;43472;48.980;9.646;2023-02-28T15:34:59;10.93;;;7.30;;
28724;SDS011;43472;48.980;9.646;2023-02-28T15:40:26;10.15;;;7.53;;
28724;SDS011;43472;48.980;9.646;2023-02-28T15:45:32;9.63;;;6.82;;
28724;SDS011;43472;48.980;9.646;2023-02-28T15:50:39;14.10;;;7.87;;
28724;SDS011;43472;48.980;9.646;2023-02-28T15:55:42;11.52;;;6.55;;
28724;SDS011;43472;48.980;9.646;2023-02-28T16:00:45;10.15;;;7.63;;
28724;SDS011;43472;48.980;9.646;2023-02-28T16:11:30;12.05;;;7.57;;
28724;SDS011;43472;48.980;9.646;2023-02-28T16:16:41;12.38;;;7.70;;
28724;SDS011;43472;48.980;9.646;2023-02-28T16:21:45;11.55;;;7.38;;
28724;SDS011;43472;48.980;9.646;2023-02-28T16:26:48;10.35;;;6.80;;
28724;SDS011;43472;48.980;9.646;2023-02-28T16:31:52;13.52;;;8.70;;
28724;SDS011;43472;48.980;9.646;2023-02-28T16:36:55;12.80;;;8.40;;
28724;SDS011;43472;48.980;9.646;2023-02-28T16:41:57;12.23;;;7.82;;
28724;SDS011;43472;48.980;9.646;2023-02-28T16:47:02;31.55;;;14.63;;
28724;SDS011;43472;48.980;9.646;2023-02-28T16:52:05;30.00;;;15.48;;
28724;SDS011;43472;48.980;9.646;2023-02-28T16:57:15;15.15;;;8.32;;
28724;SDS011;43472;48.980;9.646;2023-02-28T17:02:20;8.60;;;6.22;;
28724;SDS011;43472;48.980;9.646;2023-02-28T17:07:22;18.20;;;10.57;;
28724;SDS011;43472;48.980;9.646;2023-02-28T17:12:24;13.45;;;8.02;;
28724;SDS011;43472;48.980;9.646;2023-02-28T17:17:27;11.43;;;7.45;;
28724;SDS011;43472;48.980;9.646;2023-02-28T17:22:30;13.98;;;7.72;;
28724;SDS011;43472;48.980;9.646;2023-02-28T17:27:33;26.65;;;13.35;;
28724;SDS011;43472;48.980;9.646;2023-02-28T17:32:35;20.80;;;11.15;;
28724;SDS011;43472;48.980;9.646;2023-02-28T17:37:36;35.40;;;15.32;;
28724;SDS011;43472;48.980;9.646;2023-02-28T17:42:39;35.25;;;16.67;;
28724;SDS011;43472;48.980;9.646;2023-02-28T17:47:41;31.83;;;15.63;;
28724;SDS011;43472;48.980;9.646;2023-02-28T17:52:45;21.70;;;11.48;;
28724;SDS011;43472;48.980;9.646;2023-02-28T17:57:47;31.50;;;14.65;;
28724;SDS011;43472;48.980;9.646;2023-02-28T18:02:49;18.58;;;11.10;;
28724;SDS011;43472;48.980;9.646;2023-02-28T18:07:51;23.27;;;11.10;;
28724;SDS011;43472;48.980;9.646;2023-02-28T18:12:53;16.77;;;10.70;;
28724;SDS011;43472;48.980;9.646;2023-02-28T18:17:56;28.40;;;14.55;;
28724;SDS011;43472;48.980;9.646;2023-02-28T18:22:57;36.08;;;14.25;;
28724;SDS011;43472;48.980;9.646;2023-02-28T18:27:59;31.20;;;15.05;;
28724;SDS011;43472;48.980;9.646;2023-02-28T18:33:02;23.33;;;13.50;;
28724;SDS011;43472;48.980;9.646;2023-02-28T18:38:22;25.15;;;14.70;;
28724;SDS011;43472;48.980;9.646;2023-02-28T18:43:25;32.63;;;15.82;;
28724;SDS011;43472;48.980;9.646;2023-02-28T18:48:28;38.25;;;18.25;;
28724;SDS011;43472;48.980;9.646;2023-02-28T18:53:30;38.08;;;18.70;;
28724;SDS011;43472;48.980;9.646;2023-02-28T18:58:34;36.40;;;17.10;;
28724;SDS011;43472;48.980;9.646;2023-02-28T19:03:36;26.80;;;15.20;;
28724;SDS011;43472;48.980;9.646;2023-02-28T19:08:38;22.15;;;14.05;;
28724;SDS011;43472;48.980;9.646;2023-02-28T19:13:41;25.58;;;14.65;;
28724;SDS011;43472;48.980;9.646;2023-02-28T19:18:44;30.77;;;16.40;;
28724;SDS011;43472;48.980;9.646;2023-02-28T19:23:47;23.00;;;13.77;;
28724;SDS011;43472;48.980;9.646;2023-02-28T19:28:49;21.48;;;12.60;;
28724;SDS011;43472;48.980;9.646;2023-02-28T19:33:51;23.75;;;12.68;;
28724;SDS011;43472;48.980;9.646;2023-02-28T19:38:53;20.10;;;11.15;;
28724;SDS011;43472;48.980;9.646;2023-02-28T19:43:55;23.60;;;12.13;;
28724;SDS011;43472;48.980;9.646;2023-02-28T19:48:57;32.78;;;16.20;;
28724;SDS011;43472;48.980;9.646;2023-02-28T19:53:59;20.45;;;12.75;;
28724;SDS011;43472;48.980;9.646;2023-02-28T19:59:01;22.05;;;13.02;;
28724;SDS011;43472;48.980;9.646;2023-02-28T20:04:06;22.83;;;12.15;;
28724;SDS011;43472;48.980;9.646;2023-02-28T20:09:10;19.77;;;10.55;;
28724;SDS011;43472;48.980;9.646;2023-02-28T20:14:12;17.63;;;10.05;;
28724;SDS011;43472;48.980;9.646;2023-02-28T20:19:14;18.38;;;11.65;;
28724;SDS011;43472;48.980;9.646;2023-02-28T20:24:16;24.75;;;13.13;;
28724;SDS011;43472;48.980;9.646;2023-02-28T20:29:18;34.40;;;15.20;;
28724;SDS011;43472;48.980;9.646;2023-02-28T20:34:20;23.33;;;14.85;;
28724;SDS011;43472;48.980;9.646;2023-02-28T20:39:23;32.30;;;16.77;;
28724;SDS011;43472;48.980;9.646;2023-02-28T20:44:26;20.77;;;12.40;;
28724;SDS011;43472;48.980;9.646;2023-02-28T20:49:28;25.33;;;12.02;;
28724;SDS011;43472;48.980;9.646;2023-02-28T20:54:30;20.77;;;12.88;;
28724;SDS011;43472;48.980;9.646;2023-02-28T20:59:32;25.45;;;13.88;;
28724;SDS011;43472;48.980;9.646;2023-02-28T21:04:35;25.45;;;15.45;;
28724;SDS011;43472;48.980;9.646;2023-02-28T21:09:36;30.20;;;15.25;;
28724;SDS011;43472;48.980;9.646;2023-02-28T21:14:38;22.45;;;12.43;;
28724;SDS011;43472;48.980;9.646;2023-02-28T21:19:40;24.20;;;12.88;;
28724;SDS011;43472;48.980;9.646;2023-02-28T21:24:42;21.42;;;12.75;;
28724;SDS011;43472;48.980;9.646;2023-02-28T21:29:44;22.13;;;11.25;;
28724;SDS011;43472;48.980;9.646;2023-02-28T21:34:46;29.73;;;14.40;;
28724;SDS011;43472;48.980;9.646;2023-02-28T21:39:48;29.30;;;14.93;;
28724;SDS011;43472;48.980;9.646;2023-02-28T21:44:50;46.00;;;22.15;;
28724;SDS011;43472;48.980;9.646;2023-02-28T21:49:52;38.33;;;18.48;;
28724;SDS011;43472;48.980;9.646;2023-02-28T21:54:54;32.58;;;16.70;;
28724;SDS011;43472;48.980;9.646;2023-02-28T21:59:56;23.88;;;13.65;;
28724;SDS011;43472;48.980;9.646;2023-02-28T22:04:58;56.78;;;25.58;;
28724;SDS011;43472;48.980;9.646;2023-02-28T22:10:03;25.48;;;13.95;;
28724;SDS011;43472;48.980;9.646;2023-02-28T22:15:06;24.63;;;11.38;;
28724;SDS011;43472;48.980;9.646;2023-02-28T22:20:09;19.77;;;10.40;;
28724;SDS011;43472;48.980;9.646;2023-02-28T22:25:13;22.63;;;12.15;;
28724;SDS011;43472;48.980;9.646;2023-02-28T22:30:15;18.63;;;10.65;;
28724;SDS011;43472;48.980;9.646;2023-02-28T22:35:17;24.45;;;12.93;;
28724;SDS011;43472;48.980;9.646;2023-02-28T22:40:20;23.30;;;11.73;;
28724;SDS011;43472;48.980;9.646;2023-02-28T22:45:22;20.48;;;10.95;;
28724;SDS011;43472;48.980;9.646;2023-02-28T22:50:23;20.20;;;11.05;;
28724;SDS011;43472;48.980;9.646;2023-02-28T22:55:26;18.85;;;10.52;;
28724;SDS011;43472;48.980;9.646;2023-02-28T23:00:27;23.55;;;12.48;;
28724;SDS011;43472;48.980;9.646;2023-02-28T23:05:29;20.10;;;11.07;;
28724;SDS011;43472;48.980;9.646;2023-02-28T23:10:31;26.67;;;10.82;;
28724;SDS011;43472;48.980;9.646;2023-02-28T23:15:33;25.58;;;12.27;;
28724;SDS011;43472;48.980;9.646;2023-02-28T23:20:35;22.17;;;12.63;;
28724;SDS011;43472;48.980;9.646;2023-02-28T23:25:39;18.63;;;10.05;;
28724;SDS011;43472;48.980;9.646;2023-02-28T23:30:42;19.92;;;10.93;;
28724;SDS011;43472;48.980;9.646;2023-02-28T23:35:44;20.48;;;11.30;;
28724;SDS011;43472;48.980;9.646;2023-02-28T23:40:46;17.65;;;10.98;;
28724;SDS011;43472;48.980;9.646;2023-02-28T23:45:57;20.98;;;11.65;;
28724;SDS011;43472;48.980;9.646;2023-02-28T23:51:00;18.40;;;10.45;;
28724;SDS011;43472;48.980;9.646;2023-02-28T23:56:09;24.65;;;10.93;;
